CheckWX is a tool to help pilots better visualize weather data.  It is not intended as a substitute for an official pre-flight weather briefing.

00:49:22 UTC

EGGP TAF
Liverpool John Lennon Airport
Liverpool, United Kingdom
TAF EGGP 090458Z 0906/1006 04005KT 9999 BKN014 TEMPO 0906/0909 2000 +RADZ BKN001 TEMPO 0909/0924 5000 RADZ BKN008 TEMPO 0912/0918 BKN016 BECMG 0921/0924 SCT018 BECMG 1000/1003 29010KT PROB30 TEMPO 1003/1006 5000 SHRA BKN014

Jul-9@
06:00 UTC

Jul-9 @ 06:00 UTC

Jul-9@
21:00 UTC

Jul-9 @ 21:00 UTC

TAF EGGP 090458Z 0906/1006 04005KT 9999 BKN014

Expired

Wind
  • 040° at 5 KTS
Cloud Levels
  • Broken at 1,400' AGL

Jul-9@
06:00 UTC

Jul-9 @ 06:00 UTC

Jul-9@
09:00 UTC

Jul-9 @ 09:00 UTC

TEMPO 0906/0909 2000 +RADZ BKN001

Expired

Conditions
Heavy Rain, Heavy Drizzle
Cloud Levels
  • Broken at 100' AGL

Jul-9@
09:00 UTC

Jul-9 @ 09:00 UTC

Jul-10@
00:00 UTC

Jul-10 @ 00:00 UTC

TEMPO 0909/0924 5000 RADZ BKN008

Expired

Conditions
Rain, Drizzle
Cloud Levels
  • Broken at 800' AGL

Jul-9@
12:00 UTC

Jul-9 @ 12:00 UTC

Jul-9@
18:00 UTC

Jul-9 @ 18:00 UTC

TEMPO 0912/0918 BKN016

Expired

Cloud Levels
  • Broken at 1,600' AGL

Jul-9@
21:00 UTC

Jul-9 @ 21:00 UTC

Jul-10@
00:00 UTC

Jul-10 @ 00:00 UTC

BECMG 0921/0924 SCT018

Expired

Wind
  • 040° at 5 KTS
Cloud Levels
  • Scattered at 1,800' AGL

Jul-10@
00:00 UTC

Jul-10 @ 00:00 UTC

Jul-10@
06:00 UTC

Jul-10 @ 06:00 UTC

BECMG 1000/1003 29010KT

Becoming

Becoming Conditions expected by Fri, Jul 10, 2020 @ 03:00 UTC

Wind
  • 290° at 10 KTS
Cloud Levels
  • Scattered at 1,800' AGL

Jul-10@
03:00 UTC

Jul-10 @ 03:00 UTC

Jul-10@
06:00 UTC

Jul-10 @ 06:00 UTC

PROB30 TEMPO 1003/1006 5000 SHRA BKN014

Temporary - 30% Likelihood

Temporary - 30% Likelihood during this time.

Conditions
Showers, Rain
Cloud Levels
  • Broken at 1,400' AGL